Time;durP1;ratioP1;P1;durP2;ratioP2;P2;SDS_P1;SDS_P2;PMS_P1;PMS_P2;Temp;Humidity;BMP_temperature;BMP_pressure;BME280_temperature;BME280_humidity;BME280_pressure;Samples;Min_cycle;Max_cycle;Signal;HPM_P1;HPM_P2
2021/05/26 00:01:13;;;;;;;8.23;4.97;;;9.50;99.90;;;;;;5053230;28;20155;-70
2021/05/26 00:03:39;;;;;;;8.00;5.27;;;9.50;99.90;;;;;;5053093;28;20608;-70
2021/05/26 00:06:04;;;;;;;10.13;5.43;;;9.40;99.90;;;;;;5053054;28;20158;-69
2021/05/26 00:08:33;;;;;;;7.73;6.10;;;9.40;99.90;;;;;;5053006;28;20164;-69
2021/05/26 00:11:00;;;;;;;7.50;5.60;;;9.50;99.90;;;;;;5052756;28;20432;-69
2021/05/26 00:13:26;;;;;;;6.47;5.40;;;9.50;99.90;;;;;;5052983;28;20393;-70
2021/05/26 00:15:53;;;;;;;8.67;5.70;;;9.50;99.90;;;;;;5052070;28;20539;-70
2021/05/26 00:18:19;;;;;;;8.90;5.53;;;9.50;99.90;;;;;;5052827;28;20394;-70
2021/05/26 00:20:46;;;;;;;6.50;5.53;;;9.50;99.90;;;;;;5052860;28;20828;-70
2021/05/26 00:23:12;;;;;;;6.00;5.40;;;9.50;99.90;;;;;;5052817;28;20179;-69
2021/05/26 00:25:37;;;;;;;13.33;5.20;;;9.50;99.90;;;;;;5043982;28;20480;-70
2021/05/26 00:28:03;;;;;;;7.27;4.10;;;9.50;99.90;;;;;;5033042;28;20171;-70
2021/05/26 00:30:31;;;;;;;6.30;4.90;;;9.50;99.90;;;;;;5032749;28;20168;-70
2021/05/26 00:32:57;;;;;;;7.07;4.50;;;9.50;99.90;;;;;;5044646;28;20207;-70
2021/05/26 00:35:23;;;;;;;6.60;4.67;;;9.60;99.90;;;;;;5032469;28;20508;-70
2021/05/26 00:37:49;;;;;;;6.83;3.53;;;9.60;99.90;;;;;;5032742;28;20934;-69
2021/05/26 00:40:15;;;;;;;7.23;4.97;;;9.60;99.90;;;;;;5032878;28;20435;-69
2021/05/26 00:42:41;;;;;;;4.60;4.00;;;9.60;99.90;;;;;;5032567;28;20187;-69
2021/05/26 00:45:07;;;;;;;5.70;4.50;;;9.60;99.90;;;;;;5032723;28;20400;-70
2021/05/26 00:47:35;;;;;;;7.40;4.63;;;9.50;99.90;;;;;;5032652;28;20165;-70
2021/05/26 00:50:01;;;;;;;9.20;4.37;;;9.60;99.90;;;;;;5040020;28;20417;-70
2021/05/26 00:52:26;;;;;;;7.50;4.07;;;9.60;99.90;;;;;;5052537;28;20406;-69
2021/05/26 00:54:52;;;;;;;7.47;4.27;;;9.60;99.90;;;;;;5049739;28;21462;-70
2021/05/26 00:57:17;;;;;;;5.47;4.53;;;9.60;99.90;;;;;;5032572;28;20180;-69
2021/05/26 00:59:43;;;;;;;4.47;4.07;;;9.60;99.90;;;;;;5032501;28;20552;-69
2021/05/26 01:02:08;;;;;;;5.43;4.00;;;9.60;99.90;;;;;;5032492;28;20171;-69
2021/05/26 01:04:34;;;;;;;4.93;4.30;;;9.60;99.90;;;;;;5032460;28;20502;-69
2021/05/26 01:06:59;;;;;;;7.73;4.37;;;9.60;99.90;;;;;;5032959;28;20287;-69
2021/05/26 01:09:25;;;;;;;11.83;4.20;;;9.60;99.90;;;;;;5032607;28;20262;-69
2021/05/26 01:11:51;;;;;;;5.47;3.83;;;9.50;99.90;;;;;;5032446;28;20235;-69
2021/05/26 01:14:16;;;;;;;5.87;4.50;;;9.50;99.90;;;;;;5032408;28;20430;-69
2021/05/26 01:16:42;;;;;;;8.10;4.50;;;9.50;99.90;;;;;;5032437;28;20238;-71
2021/05/26 01:19:07;;;;;;;9.30;5.27;;;9.60;99.90;;;;;;5032613;28;20164;-69
2021/05/26 01:21:33;;;;;;;7.47;4.73;;;9.60;99.90;;;;;;5034108;28;20275;-70
2021/05/26 01:23:58;;;;;;;6.23;4.70;;;9.60;99.90;;;;;;5043622;28;20212;-70
2021/05/26 01:26:24;;;;;;;7.33;4.87;;;9.60;99.90;;;;;;5056071;28;20214;-70
2021/05/26 01:28:50;;;;;;;8.97;5.13;;;9.60;99.90;;;;;;5055888;28;20183;-69
2021/05/26 01:31:15;;;;;;;8.27;5.40;;;9.60;99.90;;;;;;5036713;28;20263;-70
2021/05/26 01:33:41;;;;;;;6.23;5.03;;;9.60;99.90;;;;;;5055052;28;20188;-69
2021/05/26 01:36:07;;;;;;;6.07;5.13;;;9.60;99.90;;;;;;5055662;28;20579;-69
2021/05/26 01:38:32;;;;;;;7.20;4.77;;;9.60;99.90;;;;;;5056174;28;20171;-70
2021/05/26 01:41:00;;;;;;;7.67;4.30;;;9.60;99.90;;;;;;5054959;28;20543;-70
2021/05/26 01:43:27;;;;;;;7.30;4.70;;;9.60;99.90;;;;;;5055772;28;20172;-70
2021/05/26 01:45:53;;;;;;;8.50;5.03;;;9.60;99.90;;;;;;5055562;28;20413;-70
2021/05/26 01:48:18;;;;;;;7.60;5.07;;;9.60;99.90;;;;;;5055732;28;20399;-70
2021/05/26 01:50:44;;;;;;;10.20;5.20;;;9.60;99.90;;;;;;5055700;28;20164;-70
2021/05/26 01:53:10;;;;;;;6.80;5.03;;;9.60;99.90;;;;;;5055962;28;20164;-70
2021/05/26 01:55:37;;;;;;;9.10;5.00;;;9.60;99.90;;;;;;5055472;28;20184;-70
2021/05/26 01:58:04;;;;;;;8.00;4.50;;;9.60;99.90;;;;;;5054754;28;20263;-70
2021/05/26 02:00:30;;;;;;;11.83;4.53;;;9.60;99.90;;;;;;5042599;28;20650;-70
2021/05/26 02:02:55;;;;;;;7.17;4.83;;;9.60;99.90;;;;;;5035397;28;20397;-69
2021/05/26 02:05:22;;;;;;;9.20;5.20;;;9.60;99.90;;;;;;5035757;28;20466;-69
2021/05/26 02:07:48;;;;;;;6.60;4.73;;;9.60;99.90;;;;;;5036578;28;20159;-69
2021/05/26 02:10:15;;;;;;;6.70;4.30;;;9.60;99.90;;;;;;5035203;28;20396;-70
2021/05/26 02:12:44;;;;;;;11.67;5.60;;;9.70;99.90;;;;;;5035291;28;20904;-70
2021/05/26 02:15:13;;;;;;;8.50;6.20;;;9.70;99.90;;;;;;5044631;28;20462;-73
2021/05/26 02:17:39;;;;;;;7.03;4.70;;;9.70;99.90;;;;;;5057444;28;20398;-72
2021/05/26 02:20:09;;;;;;;8.07;4.67;;;9.70;99.90;;;;;;5056798;28;20419;-71
2021/05/26 02:22:34;;;;;;;12.27;5.20;;;9.60;99.90;;;;;;5056941;28;20398;-72
2021/05/26 02:25:01;;;;;;;10.70;5.30;;;9.70;99.90;;;;;;5056967;28;20481;-72
2021/05/26 02:27:27;;;;;;;6.80;4.70;;;9.70;99.90;;;;;;5057156;28;20156;-72
2021/05/26 02:29:52;;;;;;;10.50;4.87;;;9.70;99.90;;;;;;5049543;28;20494;-72
2021/05/26 02:32:18;;;;;;;7.83;5.60;;;9.70;99.90;;;;;;5036587;28;20522;-69
2021/05/26 02:34:44;;;;;;;7.03;4.70;;;9.70;99.90;;;;;;5034583;28;20208;-69
2021/05/26 02:37:09;;;;;;;9.33;5.30;;;9.70;99.90;;;;;;5034920;28;20602;-69
2021/05/26 02:39:35;;;;;;;6.70;4.70;;;9.70;99.90;;;;;;5034973;28;20161;-69
2021/05/26 02:42:00;;;;;;;8.97;5.40;;;9.70;99.90;;;;;;5034595;28;20597;-69
2021/05/26 02:44:26;;;;;;;10.80;5.73;;;9.70;99.90;;;;;;5034673;28;20222;-70
2021/05/26 02:46:52;;;;;;;8.70;5.03;;;9.70;99.90;;;;;;5034669;28;20160;-70
2021/05/26 02:49:18;;;;;;;11.13;5.80;;;9.70;99.90;;;;;;5035074;28;20441;-70
2021/05/26 02:51:44;;;;;;;11.70;6.57;;;9.70;99.90;;;;;;5034518;28;20161;-69
2021/05/26 02:54:10;;;;;;;7.73;5.37;;;9.70;99.90;;;;;;5034535;28;20165;-69
2021/05/26 02:56:36;;;;;;;9.17;5.70;;;9.70;99.90;;;;;;5034347;28;20192;-69
2021/05/26 02:59:04;;;;;;;10.60;5.53;;;9.70;99.90;;;;;;5034283;28;20932;-69
2021/05/26 03:01:30;;;;;;;8.07;5.93;;;9.70;99.90;;;;;;5034356;28;20773;-70
2021/05/26 03:03:56;;;;;;;10.93;5.33;;;9.70;99.90;;;;;;5034205;28;20767;-69
2021/05/26 03:06:21;;;;;;;12.37;6.17;;;9.70;99.90;;;;;;5034771;28;20571;-69
2021/05/26 03:08:47;;;;;;;18.10;6.50;;;9.70;99.90;;;;;;5034296;28;20221;-69
2021/05/26 03:11:12;;;;;;;7.47;4.97;;;9.80;99.90;;;;;;5034107;28;20215;-70
2021/05/26 03:13:38;;;;;;;10.27;6.97;;;9.80;99.90;;;;;;5034329;28;20173;-70
2021/05/26 03:16:07;;;;;;;9.80;6.30;;;9.80;99.90;;;;;;5034128;28;20196;-69
2021/05/26 03:18:32;;;;;;;10.47;6.67;;;9.80;99.90;;;;;;5034192;28;20507;-69
2021/05/26 03:20:58;;;;;;;13.30;7.20;;;9.80;99.90;;;;;;5034086;28;20441;-69
2021/05/26 03:23:23;;;;;;;8.40;5.87;;;9.80;99.90;;;;;;5034517;28;20180;-69
2021/05/26 03:25:49;;;;;;;8.93;6.33;;;9.80;99.90;;;;;;5033944;28;20163;-69
2021/05/26 03:28:16;;;;;;;12.00;6.90;;;9.80;99.90;;;;;;5033974;28;20173;-70
2021/05/26 03:30:42;;;;;;;17.70;7.97;;;9.80;99.90;;;;;;5046998;28;20237;-69
2021/05/26 03:33:11;;;;;;;12.90;7.40;;;9.80;99.90;;;;;;5053727;28;20526;-69
2021/05/26 03:35:37;;;;;;;10.17;6.80;;;9.80;99.90;;;;;;5053463;28;20493;-69
2021/05/26 03:38:03;;;;;;;9.27;7.30;;;9.80;99.90;;;;;;5053634;28;20387;-69
2021/05/26 03:40:28;;;;;;;17.50;6.70;;;9.80;99.90;;;;;;5052800;28;20947;-69
2021/05/26 03:42:54;;;;;;;14.30;6.97;;;9.80;99.90;;;;;;5053494;28;20209;-69
2021/05/26 03:45:20;;;;;;;9.40;7.23;;;9.80;99.90;;;;;;5052818;28;20171;-69
2021/05/26 03:47:45;;;;;;;10.00;6.43;;;9.80;99.90;;;;;;5053413;28;20876;-68
2021/05/26 03:50:12;;;;;;;10.33;6.40;;;9.80;99.90;;;;;;5053408;28;20200;-69
2021/05/26 03:52:40;;;;;;;10.70;6.57;;;9.80;99.90;;;;;;5053405;28;20157;-69
2021/05/26 03:55:08;;;;;;;8.17;6.10;;;9.80;99.90;;;;;;5053234;28;20447;-69
2021/05/26 03:57:33;;;;;;;7.30;5.97;;;9.80;99.90;;;;;;5052535;28;20527;-69
2021/05/26 03:59:59;;;;;;;11.63;6.27;;;9.80;99.90;;;;;;5045593;28;20526;-69
2021/05/26 04:02:24;;;;;;;9.03;7.00;;;9.80;99.90;;;;;;5033346;28;20629;-69
2021/05/26 04:04:50;;;;;;;6.80;6.10;;;9.80;99.90;;;;;;5033520;28;20521;-69
2021/05/26 04:07:15;;;;;;;7.93;5.43;;;9.80;99.90;;;;;;5033309;28;20158;-69
2021/05/26 04:09:41;;;;;;;12.63;6.07;;;9.80;99.90;;;;;;5033278;28;20516;-69
2021/05/26 04:12:07;;;;;;;10.40;6.20;;;9.80;99.90;;;;;;5032917;28;20175;-69
2021/05/26 04:14:33;;;;;;;8.30;6.47;;;9.80;99.90;;;;;;5044783;28;20180;-69
2021/05/26 04:16:58;;;;;;;6.90;6.20;;;9.90;99.90;;;;;;5053107;28;20398;-69
2021/05/26 04:19:24;;;;;;;10.60;6.50;;;9.90;99.90;;;;;;5053371;28;20624;-69
2021/05/26 04:21:49;;;;;;;9.63;7.23;;;9.90;99.90;;;;;;5053152;28;20526;-69
2021/05/26 04:24:15;;;;;;;7.83;6.30;;;10.00;99.90;;;;;;5052903;28;20163;-69
2021/05/26 04:26:40;;;;;;;8.33;6.07;;;9.90;99.90;;;;;;5052783;28;20194;-69
2021/05/26 04:29:07;;;;;;;8.90;6.27;;;9.90;99.90;;;;;;5050154;28;20195;-68
2021/05/26 04:31:33;;;;;;;9.73;6.10;;;9.90;99.90;;;;;;5033383;28;20176;-68
2021/05/26 04:33:58;;;;;;;11.30;5.63;;;9.80;99.90;;;;;;5033423;28;20395;-69
2021/05/26 04:36:24;;;;;;;13.03;5.20;;;9.90;99.90;;;;;;5032942;28;20279;-69
2021/05/26 04:38:49;;;;;;;6.33;4.87;;;9.90;99.90;;;;;;5032835;28;20191;-69
2021/05/26 04:41:15;;;;;;;8.50;4.43;;;10.00;99.90;;;;;;5032930;28;20191;-69
2021/05/26 04:43:40;;;;;;;9.60;5.07;;;9.90;99.90;;;;;;5032707;28;20164;-69
2021/05/26 04:46:06;;;;;;;8.80;5.33;;;10.00;99.90;;;;;;5032821;28;20188;-69
2021/05/26 04:48:32;;;;;;;8.00;4.60;;;10.00;99.90;;;;;;5033877;28;20188;-69
2021/05/26 04:50:57;;;;;;;9.17;5.03;;;10.00;99.90;;;;;;5032940;28;20165;-69
2021/05/26 04:53:23;;;;;;;7.57;5.73;;;10.00;99.90;;;;;;5032645;28;20529;-69
2021/05/26 04:55:48;;;;;;;6.00;4.30;;;10.00;99.90;;;;;;5032919;28;20196;-69
2021/05/26 04:58:14;;;;;;;5.60;5.10;;;10.10;99.90;;;;;;5035875;28;20168;-69
2021/05/26 05:00:40;;;;;;;11.20;5.30;;;10.10;99.90;;;;;;5061797;28;20663;-69
2021/05/26 05:03:06;;;;;;;5.40;4.90;;;10.10;99.90;;;;;;5074881;28;20175;-69
2021/05/26 05:05:32;;;;;;;5.77;4.60;;;10.10;99.90;;;;;;5052585;28;20647;-69
2021/05/26 05:08:03;;;;;;;7.17;4.70;;;10.20;99.90;;;;;;5066225;28;20417;-69
2021/05/26 05:10:28;;;;;;;5.43;4.90;;;10.20;99.90;;;;;;5075042;28;20397;-69
2021/05/26 05:12:54;;;;;;;16.90;6.27;;;10.20;99.90;;;;;;5074117;28;20402;-69
2021/05/26 05:15:20;;;;;;;5.73;4.60;;;10.20;99.90;;;;;;5074079;28;20271;-69
2021/05/26 05:17:47;;;;;;;55.97;17.70;;;10.20;99.90;;;;;;5074543;28;20156;-69
2021/05/26 05:20:14;;;;;;;17.53;6.80;;;10.20;99.90;;;;;;5074099;28;20188;-69
2021/05/26 05:22:40;;;;;;;10.67;5.30;;;10.30;99.90;;;;;;5047954;28;20510;-69
2021/05/26 05:25:06;;;;;;;10.03;4.57;;;10.40;99.90;;;;;;5034880;28;20487;-69
2021/05/26 05:27:32;;;;;;;5.70;4.50;;;10.50;99.90;;;;;;5036243;28;20169;-69
2021/05/26 05:29:57;;;;;;;7.40;4.50;;;10.50;99.90;;;;;;5047558;28;20478;-69
2021/05/26 05:32:23;;;;;;;6.40;4.53;;;10.60;99.90;;;;;;5056324;28;20183;-69
2021/05/26 05:34:49;;;;;;;7.40;4.30;;;10.70;99.90;;;;;;5055637;28;20652;-69
2021/05/26 05:37:14;;;;;;;7.00;4.50;;;10.70;99.90;;;;;;5055954;28;20440;-69
2021/05/26 05:39:40;;;;;;;7.00;4.70;;;10.80;99.90;;;;;;5055233;28;20176;-68
2021/05/26 05:42:06;;;;;;;8.87;4.93;;;10.80;99.90;;;;;;5056215;28;20568;-68
2021/05/26 05:44:31;;;;;;;8.97;5.03;;;10.80;99.90;;;;;;5055917;28;20152;-68
2021/05/26 05:46:57;;;;;;;5.53;4.40;;;10.80;99.90;;;;;;5056128;28;20160;-68
2021/05/26 05:49:22;;;;;;;9.40;4.70;;;10.80;99.90;;;;;;5055949;28;20164;-68
2021/05/26 05:51:49;;;;;;;7.80;4.10;;;10.90;99.90;;;;;;5055713;28;20160;-69
2021/05/26 05:54:14;;;;;;;6.80;4.37;;;10.90;99.90;;;;;;5055641;28;20156;-68
2021/05/26 05:56:40;;;;;;;5.97;3.93;;;11.10;99.90;;;;;;5054512;28;20446;-68
2021/05/26 05:59:06;;;;;;;4.87;3.60;;;11.20;99.90;;;;;;5050909;28;20207;-68
2021/05/26 06:01:32;;;;;;;5.43;3.77;;;11.30;99.90;;;;;;5036013;28;20168;-68
2021/05/26 06:03:57;;;;;;;5.30;3.27;;;11.40;99.90;;;;;;5035644;28;20388;-68
2021/05/26 06:06:23;;;;;;;4.83;3.00;;;11.50;99.90;;;;;;5035473;28;20760;-68
2021/05/26 06:08:48;;;;;;;3.93;2.70;;;11.70;99.90;;;;;;5035195;28;20161;-68
2021/05/26 06:11:14;;;;;;;3.10;2.80;;;11.70;99.90;;;;;;5035544;28;20183;-68
2021/05/26 06:13:42;;;;;;;7.73;3.50;;;11.70;99.90;;;;;;5048013;28;20317;-68
2021/05/26 06:16:07;;;;;;;4.17;2.20;;;11.90;99.90;;;;;;5055619;28;20231;-68
2021/05/26 06:18:33;;;;;;;6.03;2.20;;;12.00;99.90;;;;;;5055246;28;20903;-68
2021/05/26 06:20:58;;;;;;;4.67;2.63;;;12.00;99.90;;;;;;5055212;28;20152;-68
2021/05/26 06:23:24;;;;;;;3.93;2.40;;;12.00;99.90;;;;;;5055022;28;20157;-68
2021/05/26 06:25:49;;;;;;;6.10;2.80;;;12.10;99.90;;;;;;5055116;28;20160;-68
2021/05/26 06:28:15;;;;;;;4.17;2.80;;;12.20;99.90;;;;;;5054876;28;20168;-68
2021/05/26 06:30:40;;;;;;;3.20;2.33;;;12.10;99.90;;;;;;5048795;28;20199;-68
2021/05/26 06:33:06;;;;;;;3.10;2.33;;;12.10;99.90;;;;;;5054808;28;20669;-68
2021/05/26 06:35:31;;;;;;;3.87;2.60;;;12.20;99.90;;;;;;5054707;28;20200;-68
2021/05/26 06:37:57;;;;;;;3.00;2.67;;;12.10;99.90;;;;;;5054708;28;20251;-68
2021/05/26 06:40:23;;;;;;;3.07;2.80;;;11.90;99.90;;;;;;5054323;28;20168;-68
2021/05/26 06:42:48;;;;;;;5.87;3.07;;;11.90;99.90;;;;;;5054277;28;20187;-68
2021/05/26 06:45:14;;;;;;;6.30;2.90;;;11.90;99.90;;;;;;5050194;28;21148;-68
2021/05/26 06:47:40;;;;;;;3.80;2.80;;;12.00;99.90;;;;;;5035031;28;20650;-68
2021/05/26 06:50:06;;;;;;;5.80;3.00;;;12.10;99.90;;;;;;5034382;28;20415;-68
2021/05/26 06:52:32;;;;;;;5.03;3.07;;;12.30;99.90;;;;;;5052818;28;20176;-68
2021/05/26 06:54:58;;;;;;;3.77;2.73;;;12.50;99.90;;;;;;5054095;28;20457;-68
2021/05/26 06:57:23;;;;;;;5.97;2.70;;;12.70;99.90;;;;;;5054113;28;20403;-68
2021/05/26 06:59:49;;;;;;;2.40;2.20;;;12.90;99.90;;;;;;5054078;28;20537;-68
2021/05/26 07:02:15;;;;;;;2.77;2.10;;;13.00;99.90;;;;;;5037994;28;20177;-68
2021/05/26 07:04:40;;;;;;;3.33;2.80;;;13.10;99.90;;;;;;5047209;28;20188;-68
2021/05/26 07:07:06;;;;;;;2.60;2.37;;;13.10;99.90;;;;;;5054271;28;20160;-68
2021/05/26 07:09:31;;;;;;;3.20;2.43;;;13.10;99.90;;;;;;5054124;28;20152;-68
2021/05/26 07:11:57;;;;;;;3.63;2.90;;;13.10;99.90;;;;;;5054265;28;20164;-68
2021/05/26 07:14:23;;;;;;;4.37;2.10;;;13.10;99.90;;;;;;5054581;28;20156;-68
2021/05/26 07:16:48;;;;;;;2.93;2.60;;;13.10;99.90;;;;;;5053779;28;20192;-68
2021/05/26 07:19:14;;;;;;;3.70;2.80;;;13.10;99.90;;;;;;5053347;28;20167;-68
2021/05/26 07:21:40;;;;;;;5.37;2.70;;;13.00;99.90;;;;;;5053137;28;20263;-68
2021/05/26 07:24:06;;;;;;;6.47;2.50;;;13.10;99.90;;;;;;5053869;28;20175;-68
2021/05/26 07:26:32;;;;;;;3.07;2.77;;;13.10;99.90;;;;;;5053758;28;20748;-68
2021/05/26 07:28:57;;;;;;;3.80;2.53;;;13.20;99.90;;;;;;5046283;28;21006;-68
2021/05/26 07:31:23;;;;;;;3.90;2.70;;;13.30;99.90;;;;;;5045149;28;20191;-68
2021/05/26 07:33:48;;;;;;;3.73;2.50;;;13.40;99.90;;;;;;5054127;28;20153;-69
2021/05/26 07:36:14;;;;;;;3.53;2.37;;;13.30;99.90;;;;;;5053307;28;20221;-69
2021/05/26 07:38:40;;;;;;;2.80;2.53;;;13.20;99.90;;;;;;5052551;28;20252;-69
2021/05/26 07:41:07;;;;;;;2.97;2.77;;;13.20;99.90;;;;;;5053598;28;20153;-69
2021/05/26 07:43:33;;;;;;;3.20;2.17;;;13.30;99.90;;;;;;5053878;28;20394;-69
2021/05/26 07:46:00;;;;;;;3.60;2.70;;;13.40;99.90;;;;;;5053638;28;20387;-69
2021/05/26 07:48:26;;;;;;;4.40;2.97;;;13.50;99.90;;;;;;5053338;28;20757;-69
2021/05/26 07:50:51;;;;;;;2.97;2.70;;;13.60;99.90;;;;;;5053598;28;20402;-69
2021/05/26 07:53:17;;;;;;;5.00;2.93;;;13.70;99.90;;;;;;5041020;28;20438;-69
2021/05/26 07:55:42;;;;;;;5.23;3.03;;;13.90;99.90;;;;;;5039034;28;20200;-69
2021/05/26 07:58:08;;;;;;;5.00;3.03;;;14.00;99.90;;;;;;5038214;28;20157;-69
2021/05/26 08:00:33;;;;;;;3.17;2.87;;;14.10;99.90;;;;;;5053251;28;20148;-69
2021/05/26 08:02:59;;;;;;;4.67;3.03;;;14.10;99.90;;;;;;5053284;28;20164;-69
2021/05/26 08:05:25;;;;;;;3.30;2.97;;;14.20;99.90;;;;;;5046728;28;20550;-69
2021/05/26 08:07:51;;;;;;;3.03;2.73;;;14.20;99.90;;;;;;5037827;28;20187;-69
2021/05/26 08:10:17;;;;;;;4.07;3.50;;;14.20;99.90;;;;;;5048618;28;20241;-69
2021/05/26 08:12:43;;;;;;;3.63;3.33;;;14.10;99.90;;;;;;5041913;28;20423;-69
2021/05/26 08:15:09;;;;;;;4.57;4.17;;;14.20;99.90;;;;;;5052913;28;20512;-69
2021/05/26 08:17:35;;;;;;;4.50;4.10;;;14.20;99.90;;;;;;5044899;28;20192;-69
2021/05/26 08:20:05;;;;;;;6.30;4.07;;;14.10;99.90;;;;;;5047858;28;20879;-69
2021/05/26 08:22:31;;;;;;;7.30;4.47;;;14.10;99.90;;;;;;5044302;28;20519;-69
2021/05/26 08:24:57;;;;;;;4.90;4.40;;;14.20;99.90;;;;;;5045716;28;20423;-69
2021/05/26 08:27:23;;;;;;;4.00;3.70;;;14.30;99.90;;;;;;5040900;28;20446;-69
2021/05/26 08:29:49;;;;;;;3.90;3.00;;;14.20;99.90;;;;;;5035782;28;20428;-69
2021/05/26 08:32:14;;;;;;;4.00;3.60;;;14.40;99.90;;;;;;5051192;28;20160;-69
2021/05/26 08:34:41;;;;;;;4.93;3.47;;;15.00;99.90;;;;;;5052531;28;20199;-69
2021/05/26 08:37:07;;;;;;;3.47;2.90;;;15.40;99.90;;;;;;5048776;28;20245;-69
2021/05/26 08:39:35;;;;;;;2.60;2.20;;;15.80;99.90;;;;;;5043640;28;20944;-69
2021/05/26 08:42:02;;;;;;;1.87;1.70;;;16.80;99.90;;;;;;5052900;28;20401;-69
2021/05/26 08:44:28;;;;;;;2.10;2.00;;;18.00;99.90;;;;;;5034898;28;20457;-69
2021/05/26 08:46:54;;;;;;;4.20;1.87;;;18.90;98.10;;;;;;5047632;28;20418;-70
2021/05/26 08:49:21;;;;;;;2.40;1.33;;;19.70;96.20;;;;;;5052681;28;20401;-70
2021/05/26 08:51:47;;;;;;;3.23;1.50;;;20.70;92.40;;;;;;5052538;28;20419;-70
2021/05/26 08:54:13;;;;;;;2.37;1.77;;;21.70;85.30;;;;;;5052692;28;20394;-70
2021/05/26 08:56:38;;;;;;;1.83;1.70;;;22.10;74.20;;;;;;5034560;28;20435;-70
2021/05/26 08:59:04;;;;;;;2.23;2.03;;;22.20;71.00;;;;;;5042446;28;20204;-70
2021/05/26 09:01:30;;;;;;;3.23;1.70;;;22.60;71.30;;;;;;5052610;28;20156;-70
2021/05/26 09:04:16;;;;;;;1.60;1.50;;;22.00;65.10;;;;;;5037215;28;20263;-70
2021/05/26 09:06:43;;;;;;;3.20;2.50;;;21.40;67.90;;;;;;5033983;28;20177;-70
2021/05/26 09:09:08;;;;;;;1.67;1.57;;;20.70;71.20;;;;;;5033058;28;20493;-70
2021/05/26 09:11:34;;;;;;;8.30;7.40;;;20.10;71.90;;;;;;5052233;28;20469;-70
2021/05/26 09:14:15;;;;;;;3.10;2.80;;;19.70;74.60;;;;;;5041121;28;20276;-70
2021/05/26 09:16:40;;;;;;;2.03;1.83;;;19.80;74.40;;;;;;5032450;28;20263;-70
2021/05/26 09:19:09;;;;;;;1.20;1.10;;;19.90;74.70;;;;;;5038731;28;20977;-70
2021/05/26 09:21:54;;;;;;;1.47;1.23;;;20.00;72.70;;;;;;5032478;28;20311;-70
2021/05/26 09:29:35;;;;;;;2.57;1.43;;;19.90;71.90;;;;;;5070269;28;21114;-68
2021/05/26 09:32:26;;;;;;;3.50;1.70;;;18.20;82.00;;;;;;5068410;28;20425;-68
2021/05/26 09:34:54;;;;;;;1.10;1.10;;;17.80;85.20;;;;;;5069122;28;20402;-68
2021/05/26 09:37:22;;;;;;;1.80;1.20;;;17.80;85.50;;;;;;5069774;28;20483;-68
2021/05/26 09:39:50;;;;;;;1.80;1.23;;;17.50;86.00;;;;;;5070531;28;20398;-68
2021/05/26 09:50:23;;;;;;;1.33;1.23;;;17.50;92.10;;;;;;5066398;28;20655;-69
2021/05/26 09:52:55;;;;;;;1.20;1.10;;;17.70;93.30;;;;;;5068789;28;20930;-69
2021/05/26 09:55:24;;;;;;;1.83;1.13;;;18.00;91.40;;;;;;5069093;28;20402;-69
2021/05/26 09:57:51;;;;;;;1.40;1.17;;;18.50;90.90;;;;;;5070003;28;20416;-69
2021/05/26 10:00:18;;;;;;;1.10;1.00;;;18.50;89.30;;;;;;5068311;28;20482;-69
2021/05/26 10:02:44;;;;;;;2.53;1.40;;;18.60;88.30;;;;;;5058774;28;20398;-69
2021/05/26 10:05:10;;;;;;;1.00;0.90;;;18.60;88.70;;;;;;5063130;28;20526;-69
2021/05/26 10:07:39;;;;;;;1.40;1.30;;;18.60;87.80;;;;;;5056676;28;20470;-69
2021/05/26 10:10:09;;;;;;;1.83;1.33;;;18.50;87.20;;;;;;5053635;28;20971;-69
2021/05/26 10:12:38;;;;;;;1.10;1.00;;;18.20;86.80;;;;;;5049882;28;20403;-69
2021/05/26 10:15:06;;;;;;;1.57;1.00;;;17.50;89.00;;;;;;5049932;28;20383;-69
2021/05/26 10:17:36;;;;;;;6.33;1.10;;;17.20;90.40;;;;;;5049843;28;20395;-69
2021/05/26 10:20:06;;;;;;;2.33;1.30;;;17.00;92.00;;;;;;5050199;28;20413;-69
2021/05/26 10:22:33;;;;;;;1.60;1.30;;;16.80;93.00;;;;;;5050281;28;20776;-69
2021/05/26 10:25:00;;;;;;;3.23;0.93;;;16.40;94.50;;;;;;5053062;28;20436;-69
2021/05/26 10:30:10;;;;;;;2.30;1.30;;;16.00;96.00;;;;;;5066474;28;20601;-70
2021/05/26 10:35:54;;;;;;;1.77;1.20;;;15.90;99.90;;;;;;5070400;28;20528;-69
2021/05/26 10:38:20;;;;;;;1.67;1.50;;;16.10;99.90;;;;;;5052283;28;20485;-69
2021/05/26 10:40:51;;;;;;;2.73;1.30;;;16.30;99.50;;;;;;5055836;28;20453;-70
2021/05/26 10:45:55;;;;;;;1.27;0.90;;;16.50;98.80;;;;;;5055241;28;20628;-70
2021/05/26 10:51:18;;;;;;;2.10;1.33;;;17.20;96.30;;;;;;5111100;27;20517;-69
2021/05/26 10:53:45;;;;;;;2.57;1.27;;;17.40;95.60;;;;;;5110768;28;20935;-70
2021/05/26 10:56:38;;;;;;;1.10;0.90;;;17.60;95.40;;;;;;5109765;28;20186;-69
2021/05/26 10:59:14;;;;;;;2.90;1.87;;;17.70;94.20;;;;;;5097228;28;20460;-70
2021/05/26 11:04:40;;;;;;;1.60;1.50;;;18.00;93.20;;;;;;5070488;28;20530;-70
2021/05/26 11:07:29;;;;;;;1.73;1.30;;;18.10;92.50;;;;;;5070361;28;20394;-70
2021/05/26 11:15:42;;;;;;;2.60;1.47;;;17.60;93.70;;;;;;5070460;28;20628;-69
2021/05/26 11:18:10;;;;;;;2.47;1.80;;;17.50;94.90;;;;;;5063625;28;20442;-69
2021/05/26 11:20:36;;;;;;;2.70;1.60;;;17.60;94.60;;;;;;5058339;28;20436;-69
2021/05/26 11:23:11;;;;;;;1.03;0.93;;;17.60;94.00;;;;;;5068752;28;20416;-69
2021/05/26 11:25:37;;;;;;;2.80;1.13;;;17.70;94.20;;;;;;5065916;28;20168;-69
2021/05/26 11:28:02;;;;;;;2.63;2.23;;;17.80;94.10;;;;;;5067868;28;20477;-69
2021/05/26 11:30:28;;;;;;;2.07;1.87;;;17.90;93.90;;;;;;5068672;28;20172;-69
2021/05/26 11:32:54;;;;;;;2.07;1.20;;;18.00;94.30;;;;;;5068256;28;20197;-69
2021/05/26 11:35:20;;;;;;;1.40;1.30;;;18.10;93.00;;;;;;5066690;28;20204;-69
2021/05/26 11:37:46;;;;;;;2.20;1.30;;;18.00;92.80;;;;;;5066012;28;20414;-69
2021/05/26 11:40:23;;;;;;;1.40;0.90;;;17.90;93.50;;;;;;5064392;28;20574;-69
2021/05/26 11:42:49;;;;;;;1.00;0.80;;;17.80;93.60;;;;;;5068011;28;20230;-69
2021/05/26 11:45:15;;;;;;;1.30;1.00;;;17.70;92.60;;;;;;5067760;28;20416;-69
2021/05/26 11:47:44;;;;;;;1.57;1.10;;;17.60;92.70;;;;;;5067840;28;20429;-69
2021/05/26 11:52:52;;;;;;;2.13;1.20;;;17.50;92.50;;;;;;5074214;28;20595;-68
2021/05/26 11:55:22;;;;;;;1.90;1.80;;;17.20;93.70;;;;;;5049627;28;20410;-68
2021/05/26 11:57:50;;;;;;;0.90;0.87;;;17.00;94.60;;;;;;5057592;28;20415;-68
2021/05/26 12:03:16;;;;;;;2.93;2.20;;;16.90;95.30;;;;;;5111328;27;20562;-70
2021/05/26 12:05:47;;;;;;;1.73;1.10;;;16.80;95.40;;;;;;5093321;28;20439;-70
2021/05/26 12:16:10;;;;;;;1.87;1.13;;;17.10;95.90;;;;;;5100755;27;20597;-69
2021/05/26 12:18:37;;;;;;;1.80;1.23;;;17.30;95.10;;;;;;5084188;28;20882;-69
2021/05/26 12:21:04;;;;;;;1.53;1.33;;;17.40;94.70;;;;;;5082248;28;20424;-69
2021/05/26 12:23:47;;;;;;;1.30;1.10;;;17.60;95.40;;;;;;5090520;28;20393;-69
2021/05/26 12:26:31;;;;;;;1.70;1.33;;;17.70;95.00;;;;;;5089100;28;20471;-69
2021/05/26 12:28:58;;;;;;;2.93;1.10;;;17.80;95.10;;;;;;5069921;28;20394;-69
2021/05/26 12:31:28;;;;;;;1.33;1.00;;;17.90;94.90;;;;;;5072149;28;20882;-69
2021/05/26 12:33:55;;;;;;;1.70;1.40;;;17.80;95.50;;;;;;5089703;28;20389;-69
2021/05/26 12:36:24;;;;;;;1.53;1.43;;;17.50;95.30;;;;;;5089718;28;20402;-69
2021/05/26 12:41:38;;;;;;;1.50;1.17;;;17.30;95.90;;;;;;5069250;28;21115;-70
2021/05/26 12:52:09;;;;;;;2.03;1.20;;;17.20;96.60;;;;;;5060700;28;20545;-69
2021/05/26 12:54:44;;;;;;;1.43;1.17;;;17.10;96.50;;;;;;5054798;28;20406;-69
2021/05/26 12:57:15;;;;;;;1.33;1.17;;;17.20;95.60;;;;;;5055442;28;20481;-69
2021/05/26 12:59:43;;;;;;;1.93;1.10;;;17.20;96.20;;;;;;5070023;28;20462;-69
2021/05/26 13:02:11;;;;;;;1.60;1.20;;;17.30;95.80;;;;;;5036106;28;20908;-69
2021/05/26 13:04:46;;;;;;;3.10;1.40;;;17.40;95.00;;;;;;5033107;28;20417;-69
2021/05/26 13:10:25;;;;;;;1.13;1.00;;;17.50;94.90;;;;;;5069855;28;20964;-70
2021/05/26 13:12:55;;;;;;;3.43;1.20;;;17.60;95.20;;;;;;5062507;28;20980;-70
2021/05/26 13:18:00;;;;;;;3.87;2.00;;;17.50;97.90;;;;;;5063080;28;20529;-70
2021/05/26 13:20:29;;;;;;;2.53;2.17;;;17.20;99.90;;;;;;5046778;28;20545;-70
2021/05/26 13:22:56;;;;;;;1.77;1.40;;;17.00;99.90;;;;;;5042113;28;20482;-70
2021/05/26 13:25:22;;;;;;;3.60;1.60;;;16.70;99.90;;;;;;5034965;28;20443;-70
2021/05/26 13:27:51;;;;;;;2.30;1.77;;;16.40;99.90;;;;;;5043178;28;20425;-70
2021/05/26 13:30:18;;;;;;;2.23;1.50;;;16.20;99.90;;;;;;5066224;28;20527;-70
2021/05/26 13:32:44;;;;;;;2.40;2.03;;;16.20;99.90;;;;;;5050917;28;20403;-70
2021/05/26 13:35:10;;;;;;;2.60;1.90;;;16.20;99.90;;;;;;5048876;28;20410;-70
2021/05/26 13:37:36;;;;;;;3.20;2.00;;;16.10;99.90;;;;;;5049906;28;20446;-70
2021/05/26 13:40:02;;;;;;;2.30;1.70;;;15.90;99.90;;;;;;5044131;28;20951;-70
2021/05/26 13:42:27;;;;;;;4.07;2.10;;;15.80;99.90;;;;;;5051007;28;20172;-70
2021/05/26 13:44:53;;;;;;;4.13;2.33;;;15.70;99.90;;;;;;5049042;28;20398;-70
2021/05/26 13:47:19;;;;;;;2.23;2.03;;;15.60;99.90;;;;;;5049226;28;20243;-70
2021/05/26 13:49:44;;;;;;;3.13;2.80;;;15.60;99.90;;;;;;5049487;28;20175;-70
2021/05/26 13:52:10;;;;;;;2.30;2.10;;;15.60;99.90;;;;;;5049576;28;20180;-70